Time;durP1;ratioP1;P1;durP2;ratioP2;P2;SDS_P1;SDS_P2;PMS_P1;PMS_P2;Temp;Humidity;BMP_temperature;BMP_pressure;BME280_temperature;BME280_humidity;BME280_pressure;Samples;Min_cycle;Max_cycle;Signal;HPM_P1;HPM_P2
2022/08/07 00:01:05;;;;;;;6.97;2.95;;;;;;;;;;4959489;28;20039;-73
2022/08/07 00:03:32;;;;;;;4.47;3.05;;;;;;;;;;4976208;28;20027;-75
2022/08/07 00:05:58;;;;;;;7.32;3.15;;;;;;;;;;4953334;28;20039;-75
2022/08/07 00:08:23;;;;;;;13.23;3.22;;;;;;;;;;4971267;28;20054;-74
2022/08/07 00:10:50;;;;;;;7.07;3.47;;;;;;;;;;4960733;28;20087;-74
2022/08/07 00:13:17;;;;;;;6.50;3.13;;;;;;;;;;4964587;28;20053;-76
2022/08/07 00:15:44;;;;;;;6.50;2.47;;;;;;;;;;4961107;28;20042;-75
2022/08/07 00:18:09;;;;;;;7.85;2.97;;;;;;;;;;4959172;28;20547;-75
2022/08/07 00:20:37;;;;;;;8.93;3.30;;;;;;;;;;4964772;28;20045;-75
2022/08/07 00:23:05;;;;;;;4.75;3.38;;;;;;;;;;4960686;28;20059;-76
2022/08/07 00:25:31;;;;;;;5.93;3.30;;;;;;;;;;4961017;28;20082;-75
2022/08/07 00:27:57;;;;;;;4.55;3.00;;;;;;;;;;4963982;28;20038;-75
2022/08/07 00:30:23;;;;;;;6.47;2.97;;;;;;;;;;4958870;28;20439;-75
2022/08/07 00:32:50;;;;;;;5.88;2.80;;;;;;;;;;4964604;28;20062;-75
2022/08/07 00:35:17;;;;;;;6.45;3.33;;;;;;;;;;4960083;28;20039;-75
2022/08/07 00:37:42;;;;;;;4.32;2.83;;;;;;;;;;4976072;28;20027;-75
2022/08/07 00:40:08;;;;;;;6.68;3.42;;;;;;;;;;4958486;28;20041;-75
2022/08/07 00:42:34;;;;;;;5.30;2.70;;;;;;;;;;4962315;28;20026;-75
2022/08/07 00:45:00;;;;;;;5.68;2.92;;;;;;;;;;4968702;28;20031;-75
2022/08/07 00:47:26;;;;;;;5.95;3.63;;;;;;;;;;4969229;28;20045;-75
2022/08/07 00:49:51;;;;;;;6.38;4.03;;;;;;;;;;4965452;28;20108;-75
2022/08/07 00:52:17;;;;;;;6.95;3.08;;;;;;;;;;4957790;28;20488;-77
2022/08/07 00:54:43;;;;;;;5.15;3.65;;;;;;;;;;4964885;28;20434;-76
2022/08/07 00:57:09;;;;;;;4.32;3.05;;;;;;;;;;4970225;28;20065;-77
2022/08/07 00:59:38;;;;;;;6.97;4.60;;;;;;;;;;4951823;28;20105;-76
2022/08/07 01:02:05;;;;;;;6.00;3.20;;;;;;;;;;4964765;28;20023;-77
2022/08/07 01:04:31;;;;;;;4.68;3.10;;;;;;;;;;4958885;28;20041;-77
2022/08/07 01:06:57;;;;;;;4.43;2.80;;;;;;;;;;4964039;28;20035;-76
2022/08/07 01:09:22;;;;;;;5.32;3.30;;;;;;;;;;4958636;28;20089;-77
2022/08/07 01:11:50;;;;;;;4.90;3.00;;;;;;;;;;4957131;28;20035;-77
2022/08/07 01:14:15;;;;;;;4.95;3.10;;;;;;;;;;4963763;28;20047;-76
2022/08/07 01:16:42;;;;;;;7.45;3.28;;;;;;;;;;4958881;28;20038;-78
2022/08/07 01:19:08;;;;;;;7.10;3.10;;;;;;;;;;4969162;28;20038;-78
2022/08/07 01:21:34;;;;;;;3.88;2.88;;;;;;;;;;4957602;28;20162;-76
2022/08/07 01:24:00;;;;;;;5.95;3.08;;;;;;;;;;4977252;28;20468;-76
2022/08/07 01:26:26;;;;;;;6.50;2.95;;;;;;;;;;4965343;28;20026;-77
2022/08/07 01:28:53;;;;;;;5.20;3.25;;;;;;;;;;4968887;28;20073;-76
2022/08/07 01:31:19;;;;;;;8.10;2.90;;;;;;;;;;4958534;28;20117;-77
2022/08/07 01:33:46;;;;;;;6.85;2.80;;;;;;;;;;4965811;28;20089;-78
2022/08/07 01:36:12;;;;;;;8.02;3.00;;;;;;;;;;4968412;28;20037;-77
2022/08/07 01:38:38;;;;;;;7.50;3.63;;;;;;;;;;4969834;28;20480;-77
2022/08/07 01:41:06;;;;;;;5.75;2.67;;;;;;;;;;4966794;28;20122;-75
2022/08/07 01:43:32;;;;;;;4.68;2.42;;;;;;;;;;4985481;28;20360;-76
2022/08/07 01:45:59;;;;;;;8.52;2.75;;;;;;;;;;4964270;28;20058;-75
2022/08/07 01:48:25;;;;;;;5.43;2.72;;;;;;;;;;4968555;28;20049;-75
2022/08/07 01:50:57;;;;;;;4.57;2.63;;;;;;;;;;4969547;28;20045;-75
2022/08/07 01:53:25;;;;;;;4.97;3.47;;;;;;;;;;4958182;28;20109;-77
2022/08/07 01:55:57;;;;;;;5.72;2.92;;;;;;;;;;4967341;28;20038;-77
2022/08/07 01:58:27;;;;;;;6.20;2.88;;;;;;;;;;4959561;28;20046;-76
2022/08/07 02:00:59;;;;;;;6.28;2.88;;;;;;;;;;4957704;28;20055;-77
2022/08/07 02:03:29;;;;;;;4.57;2.92;;;;;;;;;;4962010;28;20344;-78
2022/08/07 02:06:01;;;;;;;4.22;2.80;;;;;;;;;;4959631;28;20042;-76
2022/08/07 02:08:26;;;;;;;;;;;;;;;;;;4961510;28;20035;-76
2022/08/07 02:10:55;;;;;;;11.18;2.78;;;;;;;;;;4972062;28;19968;-77
2022/08/07 02:13:24;;;;;;;6.32;2.75;;;;;;;;;;4957875;28;20518;-75
2022/08/07 02:15:50;;;;;;;7.25;3.13;;;;;;;;;;4957288;28;20035;-75
2022/08/07 02:18:18;;;;;;;4.90;3.10;;;;;;;;;;4957335;28;20031;-75
2022/08/07 02:20:45;;;;;;;7.75;2.70;;;;;;;;;;4962604;28;20114;-77
2022/08/07 02:23:12;;;;;;;6.22;2.35;;;;;;;;;;4956390;28;20525;-74
2022/08/07 02:25:40;;;;;;;5.78;3.10;;;;;;;;;;4976922;28;20031;-75
2022/08/07 02:28:07;;;;;;;3.38;2.60;;;;;;;;;;4957104;28;20035;-75
2022/08/07 02:30:37;;;;;;;3.42;2.50;;;;;;;;;;4962635;28;20459;-75
2022/08/07 02:33:04;;;;;;;5.13;3.05;;;;;;;;;;4972461;28;20525;-77
2022/08/07 02:35:33;;;;;;;5.35;2.90;;;;;;;;;;4978242;28;20150;-77
2022/08/07 02:38:01;;;;;;;4.95;3.85;;;;;;;;;;4966591;28;20030;-77
2022/08/07 02:40:29;;;;;;;5.55;2.97;;;;;;;;;;4961759;28;20027;-76
2022/08/07 02:42:57;;;;;;;3.90;2.75;;;;;;;;;;4962459;28;20068;-75
2022/08/07 02:45:26;;;;;;;8.73;3.00;;;;;;;;;;4961351;28;20038;-76
2022/08/07 02:47:52;;;;;;;4.10;2.92;;;;;;;;;;4973333;28;20063;-75
2022/08/07 02:50:17;;;;;;;5.15;3.13;;;;;;;;;;4956972;28;20522;-75
2022/08/07 02:52:55;;;;;;;4.20;3.00;;;;;;;;;;4958369;28;20395;-75
2022/08/07 02:55:24;;;;;;;5.68;2.78;;;;;;;;;;4978885;28;20054;-76
2022/08/07 02:57:52;;;;;;;6.70;2.95;;;;;;;;;;4959227;28;20042;-76
2022/08/07 03:00:18;;;;;;;6.55;3.15;;;;;;;;;;4970345;28;20046;-76
2022/08/07 03:02:46;;;;;;;3.97;2.95;;;;;;;;;;4965032;28;20546;-76
2022/08/07 03:05:13;;;;;;;6.90;2.97;;;;;;;;;;4959747;28;20027;-77
2022/08/07 03:07:40;;;;;;;4.00;2.55;;;;;;;;;;4959328;28;20432;-77
2022/08/07 03:10:07;;;;;;;8.85;4.10;;;;;;;;;;4975674;28;20027;-74
2022/08/07 03:12:34;;;;;;;8.68;2.95;;;;;;;;;;4969673;28;20054;-76
2022/08/07 03:15:01;;;;;;;3.88;3.00;;;;;;;;;;4972477;28;20528;-76
2022/08/07 03:17:27;;;;;;;5.20;2.60;;;;;;;;;;4984516;28;20037;-75
2022/08/07 03:19:53;;;;;;;3.45;2.47;;;;;;;;;;4961029;28;20059;-75
2022/08/07 03:22:20;;;;;;;5.57;2.40;;;;;;;;;;4963945;28;20030;-75
2022/08/07 03:24:46;;;;;;;7.97;3.15;;;;;;;;;;4965605;28;20034;-74
2022/08/07 03:27:13;;;;;;;6.07;2.78;;;;;;;;;;4978955;28;20045;-75
2022/08/07 03:29:46;;;;;;;3.47;2.45;;;;;;;;;;4965110;28;20046;-75
2022/08/07 03:32:13;;;;;;;4.38;2.90;;;;;;;;;;4960040;28;20027;-76
2022/08/07 03:34:41;;;;;;;4.63;2.70;;;;;;;;;;4965235;28;20023;-76
2022/08/07 03:37:09;;;;;;;3.90;2.28;;;;;;;;;;4961375;28;20372;-76
2022/08/07 03:39:36;;;;;;;4.13;2.22;;;;;;;;;;4966096;28;20026;-77
2022/08/07 03:42:04;;;;;;;3.33;3.00;;;;;;;;;;4968483;28;20023;-77
2022/08/07 03:44:32;;;;;;;7.03;3.17;;;;;;;;;;4964419;28;20058;-77
2022/08/07 03:46:59;;;;;;;3.72;2.80;;;;;;;;;;4959445;28;20027;-77
2022/08/07 03:49:25;;;;;;;4.80;3.10;;;;;;;;;;4959895;28;20439;-76
2022/08/07 03:51:52;;;;;;;8.27;3.72;;;;;;;;;;4965667;28;20035;-75
2022/08/07 03:54:17;;;;;;;6.70;2.78;;;;;;;;;;4980892;28;20172;-76
2022/08/07 03:56:44;;;;;;;6.43;3.08;;;;;;;;;;4964730;28;20038;-76
2022/08/07 03:59:12;;;;;;;4.18;2.63;;;;;;;;;;4958472;28;20539;-76
2022/08/07 04:01:42;;;;;;;4.75;2.75;;;;;;;;;;4966082;28;20042;-75
2022/08/07 04:04:08;;;;;;;3.78;2.55;;;;;;;;;;4971253;28;20026;-76
2022/08/07 04:06:36;;;;;;;4.50;2.78;;;;;;;;;;4951813;28;20141;-77
2022/08/07 04:09:02;;;;;;;2.35;2.15;;;;;;;;;;4974786;28;20390;-76
2022/08/07 04:11:27;;;;;;;5.05;2.83;;;;;;;;;;4963970;28;20517;-76
2022/08/07 04:13:54;;;;;;;5.03;3.10;;;;;;;;;;4964532;28;20055;-74
2022/08/07 04:16:20;;;;;;;2.97;2.47;;;;;;;;;;4973784;28;20066;-75
2022/08/07 04:18:46;;;;;;;5.78;2.78;;;;;;;;;;4958496;28;20387;-75
2022/08/07 04:21:12;;;;;;;3.30;2.72;;;;;;;;;;4970401;28;20026;-75
2022/08/07 04:23:39;;;;;;;4.43;3.00;;;;;;;;;;4963917;28;20093;-76
2022/08/07 04:26:06;;;;;;;4.03;2.88;;;;;;;;;;4964353;28;20106;-76
2022/08/07 04:28:32;;;;;;;7.18;3.10;;;;;;;;;;4980569;28;20031;-76
2022/08/07 04:30:58;;;;;;;4.40;3.20;;;;;;;;;;4980777;28;20114;-77
2022/08/07 04:33:25;;;;;;;4.35;2.80;;;;;;;;;;4970516;28;20030;-75
2022/08/07 04:35:51;;;;;;;7.45;4.28;;;;;;;;;;4967775;28;20152;-74
2022/08/07 04:38:17;;;;;;;8.40;3.88;;;;;;;;;;4979416;28;20093;-76
2022/08/07 04:40:45;;;;;;;3.92;3.03;;;;;;;;;;4958847;28;20039;-76
2022/08/07 04:43:12;;;;;;;7.00;2.78;;;;;;;;;;4963879;28;20039;-75
2022/08/07 04:45:52;;;;;;;3.35;2.80;;;;;;;;;;4979949;28;20034;-75
2022/08/07 04:48:50;;;;;;;5.20;3.30;;;;;;;;;;4974812;28;20038;-74
2022/08/07 04:51:47;;;;;;;5.07;3.38;;;;;;;;;;4958355;28;20054;-77
2022/08/07 04:54:31;;;;;;;5.40;3.25;;;;;;;;;;4973303;28;20027;-77
2022/08/07 04:57:22;;;;;;;3.35;2.78;;;;;;;;;;4958157;28;20583;-77
2022/08/07 04:59:56;;;;;;;4.45;3.20;;;;;;;;;;4961184;28;20035;-76
2022/08/07 05:02:29;;;;;;;7.90;2.70;;;;;;;;;;4956809;28;20104;-76
2022/08/07 05:05:14;;;;;;;4.18;2.70;;;;;;;;;;4959606;28;20424;-76
2022/08/07 05:07:52;;;;;;;4.55;2.58;;;;;;;;;;4952389;28;20388;-75
2022/08/07 05:10:28;;;;;;;6.10;3.17;;;;;;;;;;4958760;28;20028;-75
2022/08/07 05:12:59;;;;;;;5.85;3.13;;;;;;;;;;4957713;28;20081;-75
2022/08/07 05:15:30;;;;;;;2.93;2.47;;;;;;;;;;4961286;28;20491;-75
2022/08/07 05:18:02;;;;;;;9.90;3.40;;;;;;;;;;4962837;28;20267;-75
2022/08/07 05:20:35;;;;;;;4.13;3.20;;;;;;;;;;4958115;28;20042;-76
2022/08/07 05:23:07;;;;;;;5.10;2.95;;;;;;;;;;4982382;28;20035;-76
2022/08/07 05:25:33;;;;;;;4.75;2.78;;;;;;;;;;4971479;28;20030;-77
2022/08/07 05:28:01;;;;;;;6.30;2.88;;;;;;;;;;4964556;28;20030;-76
2022/08/07 05:30:28;;;;;;;6.43;3.17;;;;;;;;;;4973361;28;20118;-77
2022/08/07 05:32:54;;;;;;;6.78;3.15;;;;;;;;;;4973674;28;20097;-76
2022/08/07 05:35:20;;;;;;;5.88;3.63;;;;;;;;;;4963151;28;20062;-76
2022/08/07 05:37:46;;;;;;;9.18;3.70;;;;;;;;;;4958621;28;20642;-77
2022/08/07 05:40:13;;;;;;;6.80;4.00;;;;;;;;;;4970175;28;20023;-75
2022/08/07 05:42:39;;;;;;;7.75;3.05;;;;;;;;;;4966434;28;20327;-77
2022/08/07 05:45:05;;;;;;;5.15;3.17;;;;;;;;;;4984028;28;20035;-76
2022/08/07 05:47:32;;;;;;;7.72;3.38;;;;;;;;;;4959683;28;20023;-76
2022/08/07 05:49:58;;;;;;;9.50;3.97;;;;;;;;;;4959897;28;20062;-76
2022/08/07 05:52:24;;;;;;;3.60;3.10;;;;;;;;;;4979024;28;20026;-75
2022/08/07 05:54:49;;;;;;;8.68;3.35;;;;;;;;;;4986112;28;20089;-80
2022/08/07 05:57:16;;;;;;;9.60;3.50;;;;;;;;;;4968757;28;20479;-75
2022/08/07 05:59:45;;;;;;;6.45;3.38;;;;;;;;;;4969110;28;20035;-77
2022/08/07 06:02:14;;;;;;;5.97;3.20;;;;;;;;;;4958935;28;20457;-76
2022/08/07 06:04:45;;;;;;;5.90;3.13;;;;;;;;;;4963010;28;20066;-77
2022/08/07 06:07:11;;;;;;;6.20;3.55;;;;;;;;;;4973167;28;20023;-77
2022/08/07 06:09:37;;;;;;;5.22;3.28;;;;;;;;;;4963312;28;20113;-77
2022/08/07 06:12:03;;;;;;;3.78;3.20;;;;;;;;;;4956993;28;20506;-77
2022/08/07 06:14:29;;;;;;;4.28;2.70;;;;;;;;;;4966773;28;20042;-75
2022/08/07 06:16:55;;;;;;;7.43;3.05;;;;;;;;;;4974857;28;20035;-75
2022/08/07 06:19:21;;;;;;;8.13;3.00;;;;;;;;;;4957433;28;20031;-75
2022/08/07 06:21:47;;;;;;;5.60;2.70;;;;;;;;;;4974978;28;20380;-75
2022/08/07 06:24:13;;;;;;;4.80;2.92;;;;;;;;;;4959064;28;20030;-77
2022/08/07 06:26:40;;;;;;;3.03;2.35;;;;;;;;;;4957524;28;20041;-75
2022/08/07 06:29:07;;;;;;;3.75;2.55;;;;;;;;;;4963124;28;20105;-75
2022/08/07 06:31:32;;;;;;;3.53;2.55;;;;;;;;;;4957674;28;20554;-77
2022/08/07 06:33:58;;;;;;;1.27;1.08;;;;;;;;;;4956397;28;20035;-75
2022/08/07 06:36:25;;;;;;;8.63;2.97;;;;;;;;;;4974945;28;20043;-76
2022/08/07 06:38:51;;;;;;;3.50;1.27;;;;;;;;;;4956211;28;20035;-76
2022/08/07 06:41:25;;;;;;;3.17;1.00;;;;;;;;;;4962898;28;20019;-77
2022/08/07 06:43:53;;;;;;;2.45;2.00;;;;;;;;;;4958241;28;20039;-76
2022/08/07 06:46:19;;;;;;;7.28;1.58;;;;;;;;;;4963069;28;20474;-75
2022/08/07 06:48:45;;;;;;;3.72;1.70;;;;;;;;;;4959772;28;20031;-76
2022/08/07 06:51:19;;;;;;;6.35;1.50;;;;;;;;;;4977728;28;20426;-75
2022/08/07 06:53:45;;;;;;;3.35;1.40;;;;;;;;;;4974567;28;20031;-75
2022/08/07 06:56:13;;;;;;;2.13;1.60;;;;;;;;;;4960946;28;20097;-76
2022/08/07 06:58:39;;;;;;;5.32;3.22;;;;;;;;;;4974738;28;20058;-75
2022/08/07 07:01:07;;;;;;;3.83;1.27;;;;;;;;;;4962211;28;20137;-77
2022/08/07 07:03:36;;;;;;;3.75;1.20;;;;;;;;;;4971463;28;20139;-77
2022/08/07 07:06:02;;;;;;;5.85;1.88;;;;;;;;;;4971844;28;20030;-78
2022/08/07 07:08:28;;;;;;;5.53;1.20;;;;;;;;;;4981000;28;20495;-75
2022/08/07 07:10:54;;;;;;;10.38;1.92;;;;;;;;;;4974414;28;20056;-76
2022/08/07 07:13:32;;;;;;;3.10;1.42;;;;;;;;;;4958090;28;20507;-77
2022/08/07 07:16:04;;;;;;;2.22;1.20;;;;;;;;;;4957084;28;20027;-77
2022/08/07 07:18:37;;;;;;;6.25;1.95;;;;;;;;;;4973575;28;20125;-76
2022/08/07 07:21:10;;;;;;;6.72;1.30;;;;;;;;;;4974423;28;20423;-79
2022/08/07 07:23:36;;;;;;;5.40;1.20;;;;;;;;;;4956194;28;20335;-77
2022/08/07 07:26:06;;;;;;;3.28;1.80;;;;;;;;;;4971778;28;20050;-77
2022/08/07 07:28:37;;;;;;;2.40;1.45;;;;;;;;;;4957108;28;20026;-75
2022/08/07 07:31:08;;;;;;;5.25;1.67;;;;;;;;;;4957973;28;20054;-79
2022/08/07 07:33:35;;;;;;;4.13;1.17;;;;;;;;;;4975142;28;20031;-77
2022/08/07 07:36:01;;;;;;;2.05;1.17;;;;;;;;;;4945598;28;20286;-76
2022/08/07 07:38:27;;;;;;;2.13;1.20;;;;;;;;;;4964708;28;20030;-78
2022/08/07 07:40:56;;;;;;;2.10;1.13;;;;;;;;;;4969365;28;20023;-79
2022/08/07 07:43:24;;;;;;;3.90;1.45;;;;;;;;;;4969052;28;20034;-76
2022/08/07 07:45:52;;;;;;;1.52;1.08;;;;;;;;;;4970198;28;20042;-75
2022/08/07 07:48:23;;;;;;;6.55;1.50;;;;;;;;;;4968451;28;20027;-77
2022/08/07 07:50:51;;;;;;;3.35;1.52;;;;;;;;;;4968642;28;20112;-76
2022/08/07 07:53:20;;;;;;;2.42;1.30;;;;;;;;;;4971573;28;20049;-76
2022/08/07 07:55:45;;;;;;;1.65;1.33;;;;;;;;;;4971842;28;20045;-78
2022/08/07 07:58:13;;;;;;;4.72;1.15;;;;;;;;;;4973340;28;20684;-77
2022/08/07 08:00:40;;;;;;;4.43;1.30;;;;;;;;;;4972230;28;20042;-77
2022/08/07 08:03:14;;;;;;;2.10;1.20;;;;;;;;;;4972227;28;20027;-74
2022/08/07 08:05:41;;;;;;;4.72;1.35;;;;;;;;;;4955994;28;20041;-76
2022/08/07 08:08:09;;;;;;;4.45;1.30;;;;;;;;;;4973454;28;20054;-76
2022/08/07 08:10:36;;;;;;;3.35;1.42;;;;;;;;;;4973954;28;20412;-76
2022/08/07 08:13:03;;;;;;;4.07;1.35;;;;;;;;;;4972069;28;20031;-76
2022/08/07 08:15:35;;;;;;;2.35;1.30;;;;;;;;;;4973006;28;20030;-76
2022/08/07 08:18:02;;;;;;;2.25;1.48;;;;;;;;;;4974506;28;20030;-78
2022/08/07 08:20:31;;;;;;;3.35;1.40;;;;;;;;;;4971857;28;20112;-77
2022/08/07 08:28:30;;;;;;;6.82;1.40;;;;;;;;;;4953863;29;20033;-77
2022/08/07 08:31:00;;;;;;;3.97;1.10;;;;;;;;;;4952861;29;20109;-75
2022/08/07 08:33:32;;;;;;;3.45;1.42;;;;;;;;;;4953896;28;20169;-78
2022/08/07 08:36:00;;;;;;;2.67;1.30;;;;;;;;;;4968414;28;20055;-77
2022/08/07 08:38:44;;;;;;;3.05;1.30;;;;;;;;;;4953507;28;20023;-77
2022/08/07 08:41:23;;;;;;;4.63;1.67;;;;;;;;;;4952176;28;20486;-77
2022/08/07 08:44:09;;;;;;;4.70;2.38;;;;;;;;;;4952314;28;20475;-77
2022/08/07 08:46:42;;;;;;;3.28;1.52;;;;;;;;;;4953472;28;20027;-75
2022/08/07 08:49:38;;;;;;;5.10;1.20;;;;;;;;;;4953682;28;20027;-75
2022/08/07 08:52:18;;;;;;;5.00;1.45;;;;;;;;;;4951986;29;20027;-76
2022/08/07 08:54:52;;;;;;;6.25;1.20;;;;;;;;;;4952265;29;20490;-76
2022/08/07 08:57:39;;;;;;;4.63;1.20;;;;;;;;;;4953506;28;20027;-76
2022/08/07 09:00:07;;;;;;;2.13;1.10;;;;;;;;;;4953493;28;20086;-77
2022/08/07 09:02:39;;;;;;;2.80;1.45;;;;;;;;;;4953411;28;20079;-75
2022/08/07 09:05:35;;;;;;;1.85;1.33;;;;;;;;;;4951347;28;20031;-77
2022/08/07 09:08:20;;;;;;;2.10;1.15;;;;;;;;;;4951943;28;20027;-78
2022/08/07 09:11:10;;;;;;;3.42;1.75;;;;;;;;;;4967710;28;20491;-77
2022/08/07 09:13:57;;;;;;;2.55;1.20;;;;;;;;;;4952873;28;20059;-75
2022/08/07 09:17:00;;;;;;;2.15;1.92;;;;;;;;;;4951164;29;20484;-77
2022/08/07 09:19:51;;;;;;;2.63;1.25;;;;;;;;;;4951288;29;20102;-78
2022/08/07 09:22:46;;;;;;;3.72;1.15;;;;;;;;;;4950888;28;20472;-78
2022/08/07 09:25:26;;;;;;;4.65;1.40;;;;;;;;;;4959164;28;20043;-77
2022/08/07 09:28:00;;;;;;;1.35;1.08;;;;;;;;;;4967290;28;20134;-77
2022/08/07 09:30:36;;;;;;;2.78;1.00;;;;;;;;;;4950953;29;20162;-78
2022/08/07 09:33:21;;;;;;;5.25;1.40;;;;;;;;;;4953197;28;20066;-77
2022/08/07 09:35:57;;;;;;;3.40;1.17;;;;;;;;;;4965698;28;20039;-77
2022/08/07 09:38:26;;;;;;;4.78;1.20;;;;;;;;;;4951308;29;20050;-76
2022/08/07 09:41:33;;;;;;;1.08;0.90;;;;;;;;;;4951020;28;20038;-75
2022/08/07 09:44:16;;;;;;;6.75;1.88;;;;;;;;;;4940159;29;20039;-76
2022/08/07 09:47:13;;;;;;;4.85;2.35;;;;;;;;;;4952487;28;20562;-76
2022/08/07 09:50:07;;;;;;;1.75;0.80;;;;;;;;;;4954056;28;20023;-77
2022/08/07 09:52:39;;;;;;;3.28;0.85;;;;;;;;;;4953551;29;20035;-77
2022/08/07 09:55:22;;;;;;;2.83;0.80;;;;;;;;;;4954396;29;20028;-76
2022/08/07 09:58:39;;;;;;;5.57;1.45;;;;;;;;;;4956930;28;20215;-76
2022/08/07 10:01:42;;;;;;;1.48;0.65;;;;;;;;;;4943961;29;20423;-75
2022/08/07 10:04:43;;;;;;;3.47;1.00;;;;;;;;;;4973159;28;20031;-76
2022/08/07 10:07:30;;;;;;;0.53;0.53;;;;;;;;;;4952795;28;20045;-76
2022/08/07 10:10:23;;;;;;;2.72;0.70;;;;;;;;;;4951916;28;20019;-75
2022/08/07 10:13:16;;;;;;;1.85;0.82;;;;;;;;;;4959041;28;20031;-77
2022/08/07 10:15:51;;;;;;;2.42;0.60;;;;;;;;;;4951235;28;20026;-76
2022/08/07 10:18:42;;;;;;;1.33;0.85;;;;;;;;;;4951354;28;20029;-77
2022/08/07 10:21:50;;;;;;;2.85;1.10;;;;;;;;;;4950844;28;20030;-78
2022/08/07 10:24:25;;;;;;;2.03;0.73;;;;;;;;;;4962346;28;20038;-78
2022/08/07 10:27:24;;;;;;;2.90;1.05;;;;;;;;;;4970883;28;20053;-76
2022/08/07 10:30:20;;;;;;;3.50;1.02;;;;;;;;;;4969943;28;20034;-77
2022/08/07 10:33:04;;;;;;;3.70;0.95;;;;;;;;;;4969970;28;20106;-77
2022/08/07 10:35:52;;;;;;;3.50;0.77;;;;;;;;;;4986424;28;20027;-77
2022/08/07 10:38:39;;;;;;;3.45;1.30;;;;;;;;;;4972532;28;20062;-78
2022/08/07 10:41:39;;;;;;;5.82;1.85;;;;;;;;;;4969522;28;20026;-77
2022/08/07 10:44:33;;;;;;;2.65;1.10;;;;;;;;;;4970731;28;20506;-74
2022/08/07 10:48:03;;;;;;;1.52;1.05;;;;;;;;;;4970727;28;20022;-76
2022/08/07 10:50:41;;;;;;;5.15;1.08;;;;;;;;;;4929476;29;20095;-76
2022/08/07 10:53:33;;;;;;;2.33;0.90;;;;;;;;;;4978119;28;20444;-76
2022/08/07 10:56:23;;;;;;;2.45;1.00;;;;;;;;;;4964920;28;20045;-76
2022/08/07 10:58:54;;;;;;;6.75;1.10;;;;;;;;;;4968985;28;20023;-78
2022/08/07 11:01:24;;;;;;;2.63;1.05;;;;;;;;;;4970453;28;20399;-77
2022/08/07 11:04:00;;;;;;;4.47;0.98;;;;;;;;;;4970528;28;20165;-77
2022/08/07 11:07:02;;;;;;;2.22;1.58;;;;;;;;;;4985744;28;20462;-76
2022/08/07 11:09:35;;;;;;;1.77;0.85;;;;;;;;;;4969177;28;20271;-76
2022/08/07 11:12:08;;;;;;;2.53;1.00;;;;;;;;;;4971119;28;20035;-76
2022/08/07 11:14:46;;;;;;;2.60;0.90;;;;;;;;;;4970122;28;20061;-76
2022/08/07 11:17:38;;;;;;;2.78;1.17;;;;;;;;;;4985330;28;20142;-77
2022/08/07 11:20:25;;;;;;;1.15;0.80;;;;;;;;;;4967317;28;20077;-78
2022/08/07 11:23:23;;;;;;;4.90;0.88;;;;;;;;;;4969433;28;20085;-77
2022/08/07 11:26:02;;;;;;;0.85;0.65;;;;;;;;;;4946111;29;20138;-76
2022/08/07 11:28:35;;;;;;;3.22;1.00;;;;;;;;;;4953964;29;20455;-77
2022/08/07 11:31:12;;;;;;;4.45;1.08;;;;;;;;;;4954497;29;20084;-78
2022/08/07 11:33:50;;;;;;;2.63;1.00;;;;;;;;;;4937126;29;20090;-78
2022/08/07 11:36:39;;;;;;;4.68;1.10;;;;;;;;;;4953514;29;20035;-76
2022/08/07 11:39:15;;;;;;;1.50;0.50;;;;;;;;;;4953328;29;20023;-76
2022/08/07 11:42:09;;;;;;;2.00;0.93;;;;;;;;;;4953165;29;20494;-78
2022/08/07 11:44:54;;;;;;;3.40;0.93;;;;;;;;;;4953930;29;20075;-77
2022/08/07 11:47:32;;;;;;;1.38;0.68;;;;;;;;;;4954795;29;20428;-78
2022/08/07 11:50:31;;;;;;;2.85;0.70;;;;;;;;;;4954986;28;20027;-77
2022/08/07 11:53:09;;;;;;;2.95;0.90;;;;;;;;;;4953600;29;20054;-76
2022/08/07 11:56:15;;;;;;;3.90;1.85;;;;;;;;;;4954108;29;20035;-77
2022/08/07 11:58:52;;;;;;;1.55;0.70;;;;;;;;;;4953958;29;20522;-78
2022/08/07 12:01:39;;;;;;;0.85;0.80;;;;;;;;;;4954260;29;20027;-77
2022/08/07 12:04:29;;;;;;;3.50;0.75;;;;;;;;;;4953963;29;20093;-78
2022/08/07 12:07:13;;;;;;;1.90;0.90;;;;;;;;;;4952689;29;20452;-78
2022/08/07 12:09:48;;;;;;;3.63;0.88;;;;;;;;;;4952789;29;20082;-77
2022/08/07 12:12:22;;;;;;;2.35;0.80;;;;;;;;;;4952707;29;20030;-78
2022/08/07 12:14:57;;;;;;;4.30;0.60;;;;;;;;;;4953912;29;20075;-78
2022/08/07 12:17:32;;;;;;;3.42;0.40;;;;;;;;;;4953647;29;20030;-77
2022/08/07 12:20:05;;;;;;;0.98;0.60;;;;;;;;;;4952524;29;20058;-77
2022/08/07 12:22:50;;;;;;;5.60;0.65;;;;;;;;;;4952518;28;20078;-75
2022/08/07 12:25:54;;;;;;;5.80;1.20;;;;;;;;;;4969066;28;20144;-78
2022/08/07 12:28:27;;;;;;;2.10;0.77;;;;;;;;;;4953408;29;20032;-77
2022/08/07 12:30:56;;;;;;;1.80;0.50;;;;;;;;;;4969286;28;20011;-78
2022/08/07 12:33:27;;;;;;;1.23;0.60;;;;;;;;;;4954110;28;20081;-78
2022/08/07 12:35:53;;;;;;;1.15;0.68;;;;;;;;;;4954235;28;20023;-77
2022/08/07 12:38:20;;;;;;;3.13;0.55;;;;;;;;;;4953242;28;20031;-77
2022/08/07 12:40:50;;;;;;;2.50;0.70;;;;;;;;;;4952361;28;20086;-79
2022/08/07 12:43:19;;;;;;;3.80;1.83;;;;;;;;;;4967766;28;20019;-77
2022/08/07 12:46:01;;;;;;;0.85;0.65;;;;;;;;;;4987574;28;20065;-77
2022/08/07 12:48:56;;;;;;;1.70;0.63;;;;;;;;;;4987382;28;20026;-77
2022/08/07 12:51:27;;;;;;;4.53;0.93;;;;;;;;;;4988742;28;20026;-78
2022/08/07 12:53:52;;;;;;;;;;;;;;;;;;4973676;28;20026;-75
2022/08/07 12:56:26;;;;;;;4.53;0.73;;;;;;;;;;4972422;28;19980;-77
2022/08/07 12:58:53;;;;;;;1.58;0.70;;;;;;;;;;4971437;28;20482;-78
2022/08/07 13:01:24;;;;;;;1.30;0.70;;;;;;;;;;4987770;28;20038;-77
2022/08/07 13:03:58;;;;;;;2.30;0.52;;;;;;;;;;4972906;28;20027;-78
2022/08/07 13:06:47;;;;;;;2.67;0.60;;;;;;;;;;4971033;28;20023;-77
2022/08/07 13:09:50;;;;;;;1.00;0.55;;;;;;;;;;4987473;28;20109;-77
2022/08/07 13:12:31;;;;;;;0.88;0.55;;;;;;;;;;4907670;28;20038;-77
2022/08/07 13:15:16;;;;;;;;;;;;;;;;;;4971808;28;20513;-77
2022/08/07 13:18:01;;;;;;;5.45;1.35;;;;;;;;;;4971231;28;19918;-76
2022/08/07 13:20:42;;;;;;;3.25;0.73;;;;;;;;;;4987144;28;20031;-76
2022/08/07 13:23:25;;;;;;;2.53;0.73;;;;;;;;;;4984402;28;20015;-77
2022/08/07 13:26:21;;;;;;;3.50;0.68;;;;;;;;;;4953137;28;20027;-78
2022/08/07 13:29:05;;;;;;;1.83;0.80;;;;;;;;;;4951695;29;20066;-77
2022/08/07 13:31:52;;;;;;;1.50;0.68;;;;;;;;;;4951984;29;20023;-76
2022/08/07 13:34:36;;;;;;;2.55;0.90;;;;;;;;;;4951829;29;20042;-77
2022/08/07 13:37:09;;;;;;;2.00;0.70;;;;;;;;;;4952560;29;20031;-78
2022/08/07 13:40:12;;;;;;;5.85;1.10;;;;;;;;;;4951589;29;20035;-77
2022/08/07 13:42:38;;;;;;;0.90;0.77;;;;;;;;;;4951493;29;20428;-77
2022/08/07 13:45:09;;;;;;;1.70;0.63;;;;;;;;;;4952580;28;20027;-77
2022/08/07 13:47:37;;;;;;;2.20;0.45;;;;;;;;;;4951011;29;20206;-77
2022/08/07 13:50:06;;;;;;;1.30;0.60;;;;;;;;;;4952079;28;20439;-77
2022/08/07 13:52:35;;;;;;;2.50;0.75;;;;;;;;;;4950946;29;20092;-76
2022/08/07 13:55:08;;;;;;;2.20;0.68;;;;;;;;;;4967273;28;20034;-79
2022/08/07 13:57:37;;;;;;;1.92;1.13;;;;;;;;;;4951977;29;20054;-76
2022/08/07 14:00:05;;;;;;;2.63;0.80;;;;;;;;;;4952834;29;20027;-77
2022/08/07 14:02:33;;;;;;;1.10;0.60;;;;;;;;;;4952267;29;20050;-74
2022/08/07 14:05:03;;;;;;;4.65;1.33;;;;;;;;;;4956950;29;20034;-73
2022/08/07 14:07:47;;;;;;;0.90;0.70;;;;;;;;;;4975215;28;20050;-73
2022/08/07 14:10:13;;;;;;;1.52;0.85;;;;;;;;;;4956835;29;20476;-73
2022/08/07 14:12:46;;;;;;;1.73;0.50;;;;;;;;;;4952340;28;20102;-74
2022/08/07 14:15:30;;;;;;;3.17;0.50;;;;;;;;;;4953153;29;20066;-74
2022/08/07 14:18:01;;;;;;;2.75;0.68;;;;;;;;;;4951095;29;20030;-75
2022/08/07 14:20:30;;;;;;;2.80;1.00;;;;;;;;;;4951883;28;20031;-73
2022/08/07 14:23:16;;;;;;;2.83;0.82;;;;;;;;;;4952465;28;20035;-74
2022/08/07 14:25:45;;;;;;;3.38;1.42;;;;;;;;;;4971600;28;20042;-75
2022/08/07 14:28:14;;;;;;;1.48;0.55;;;;;;;;;;4970285;28;20093;-75
2022/08/07 14:30:48;;;;;;;4.30;1.13;;;;;;;;;;4969776;28;20023;-75
2022/08/07 14:33:16;;;;;;;2.83;0.60;;;;;;;;;;4972323;28;20073;-75
2022/08/07 14:35:42;;;;;;;3.63;2.15;;;;;;;;;;4985801;28;20037;-74
2022/08/07 14:38:10;;;;;;;1.38;0.75;;;;;;;;;;4985889;28;20023;-74
2022/08/07 14:40:36;;;;;;;1.05;0.60;;;;;;;;;;4953528;28;20027;-76
2022/08/07 14:43:06;;;;;;;1.63;0.85;;;;;;;;;;4971351;28;20502;-74
2022/08/07 14:45:47;;;;;;;1.40;0.45;;;;;;;;;;4969672;28;20035;-74
2022/08/07 14:48:18;;;;;;;2.75;0.50;;;;;;;;;;4971607;28;20062;-77
2022/08/07 14:50:53;;;;;;;1.13;0.45;;;;;;;;;;4971342;28;20057;-77
2022/08/07 14:53:21;;;;;;;2.65;0.60;;;;;;;;;;4972010;28;20082;-75
2022/08/07 14:55:47;;;;;;;1.65;0.50;;;;;;;;;;4971601;28;20019;-74
2022/08/07 14:58:16;;;;;;;2.92;0.80;;;;;;;;;;4970605;28;20395;-75
2022/08/07 15:00:47;;;;;;;2.42;0.80;;;;;;;;;;4971442;28;20073;-76
2022/08/07 15:03:14;;;;;;;1.08;0.45;;;;;;;;;;4975278;28;20479;-75
2022/08/07 15:05:40;;;;;;;0.47;0.47;;;;;;;;;;4974040;28;20076;-75
2022/08/07 15:08:09;;;;;;;1.05;0.60;;;;;;;;;;4990374;28;20388;-75
2022/08/07 15:10:40;;;;;;;2.80;0.55;;;;;;;;;;4989498;28;20225;-75
2022/08/07 15:13:18;;;;;;;2.45;1.02;;;;;;;;;;4974750;28;20464;-75
2022/08/07 15:15:52;;;;;;;1.20;0.47;;;;;;;;;;4973749;28;20160;-74
2022/08/07 15:18:29;;;;;;;1.42;0.88;;;;;;;;;;4973176;28;20049;-75
2022/08/07 15:21:02;;;;;;;2.38;0.68;;;;;;;;;;4974239;28;20042;-75
2022/08/07 15:23:32;;;;;;;3.95;1.30;;;;;;;;;;4968753;28;20020;-75
2022/08/07 15:26:01;;;;;;;2.67;2.03;;;;;;;;;;4955121;28;20110;-74